Time;durP1;ratioP1;P1;durP2;ratioP2;P2;SDS_P1;SDS_P2;PMS_P1;PMS_P2;Temp;Humidity;BMP_temperature;BMP_pressure;BME280_temperature;BME280_humidity;BME280_pressure;Samples;Min_cycle;Max_cycle;Signal;HPM_P1;HPM_P2
2023/12/23 00:01:10;;;;;;;3.13;1.25;;;;;;;;;;6217688;23;19996;-80
2023/12/23 00:03:56;;;;;;;3.53;1.20;;;;;;;;;;6217919;23;20083;-80
2023/12/23 00:06:41;;;;;;;4.18;1.40;;;;;;;;;;6218069;23;20000;-80
2023/12/23 00:09:27;;;;;;;4.45;1.95;;;;;;;;;;6218213;22;19993;-79
2023/12/23 00:12:12;;;;;;;8.30;2.13;;;;;;;;;;6218211;23;20460;-79
2023/12/23 00:14:57;;;;;;;5.05;1.70;;;;;;;;;;6218343;23;20003;-82
2023/12/23 00:17:43;;;;;;;3.22;1.00;;;;;;;;;;6218351;23;19993;-81
2023/12/23 00:20:28;;;;;;;3.08;1.30;;;;;;;;;;6218630;23;20057;-82
2023/12/23 00:23:13;;;;;;;2.25;1.17;;;;;;;;;;6218149;23;20352;-80
2023/12/23 00:25:58;;;;;;;3.78;1.30;;;;;;;;;;6218379;23;20004;-81
2023/12/23 00:28:44;;;;;;;3.47;1.27;;;;;;;;;;6218041;23;20465;-82
2023/12/23 00:31:29;;;;;;;4.07;1.40;;;;;;;;;;6217765;23;20000;-81
2023/12/23 00:34:14;;;;;;;2.65;1.23;;;;;;;;;;6217162;23;20008;-82
2023/12/23 00:36:59;;;;;;;5.82;1.77;;;;;;;;;;6218122;23;20075;-81
2023/12/23 00:39:45;;;;;;;5.90;1.52;;;;;;;;;;6218380;23;20000;-82
2023/12/23 00:42:30;;;;;;;4.78;1.40;;;;;;;;;;6218355;23;20050;-82
2023/12/23 00:45:15;;;;;;;5.65;1.55;;;;;;;;;;6218147;23;20001;-81
2023/12/23 00:48:00;;;;;;;5.82;1.42;;;;;;;;;;6218337;23;19992;-81
2023/12/23 00:50:45;;;;;;;10.07;1.50;;;;;;;;;;6218454;23;20039;-81
2023/12/23 00:53:31;;;;;;;3.92;1.80;;;;;;;;;;6218429;23;20328;-80
2023/12/23 00:56:22;;;;;;;5.82;1.27;;;;;;;;;;6218207;23;20012;-81
2023/12/23 00:59:07;;;;;;;3.03;1.55;;;;;;;;;;6218079;23;20050;-79
2023/12/23 01:01:52;;;;;;;4.68;1.30;;;;;;;;;;6218132;23;20070;-80
2023/12/23 01:04:38;;;;;;;2.78;1.45;;;;;;;;;;6238515;23;20007;-80
2023/12/23 01:07:23;;;;;;;5.18;1.33;;;;;;;;;;6217784;23;20067;-79
2023/12/23 01:10:08;;;;;;;4.70;1.20;;;;;;;;;;6217837;23;20004;-80
2023/12/23 01:12:54;;;;;;;3.83;1.33;;;;;;;;;;6217608;23;20078;-79
2023/12/23 01:15:39;;;;;;;2.58;1.25;;;;;;;;;;6217724;23;20008;-79
2023/12/23 01:18:24;;;;;;;3.65;1.17;;;;;;;;;;6238757;23;20000;-79
2023/12/23 01:21:10;;;;;;;2.45;0.93;;;;;;;;;;6217451;23;20000;-79
2023/12/23 01:23:55;;;;;;;2.85;0.95;;;;;;;;;;6218340;23;20038;-79
2023/12/23 01:26:40;;;;;;;2.40;0.98;;;;;;;;;;6218957;23;20004;-79
2023/12/23 01:29:26;;;;;;;6.00;1.10;;;;;;;;;;6219250;23;19996;-79
2023/12/23 01:32:11;;;;;;;3.33;1.20;;;;;;;;;;6219408;23;19996;-81
2023/12/23 01:34:56;;;;;;;3.67;1.52;;;;;;;;;;6198437;23;19993;-82
2023/12/23 01:37:41;;;;;;;3.45;1.17;;;;;;;;;;6198136;23;20425;-81
2023/12/23 01:40:26;;;;;;;2.88;0.85;;;;;;;;;;6219877;23;20444;-82
2023/12/23 01:43:12;;;;;;;2.53;1.33;;;;;;;;;;6219029;23;20337;-81
2023/12/23 01:45:59;;;;;;;2.40;0.90;;;;;;;;;;6219526;23;20024;-81
2023/12/23 01:48:44;;;;;;;2.40;1.10;;;;;;;;;;6219502;23;19992;-81
2023/12/23 01:51:30;;;;;;;3.75;1.20;;;;;;;;;;6219255;23;19996;-81
2023/12/23 01:54:16;;;;;;;3.70;1.10;;;;;;;;;;6219461;23;20004;-80
2023/12/23 01:57:01;;;;;;;5.18;1.50;;;;;;;;;;6219474;23;20087;-81
2023/12/23 01:59:46;;;;;;;9.20;1.40;;;;;;;;;;6240446;23;20283;-81
2023/12/23 02:02:31;;;;;;;4.72;1.20;;;;;;;;;;6218932;23;20008;-80
2023/12/23 02:05:17;;;;;;;6.55;1.42;;;;;;;;;;6218572;23;20418;-79
2023/12/23 02:08:02;;;;;;;6.05;2.22;;;;;;;;;;6218913;23;19996;-80
2023/12/23 02:10:49;;;;;;;7.97;2.20;;;;;;;;;;6218629;23;20058;-80
2023/12/23 02:13:47;;;;;;;6.55;1.63;;;;;;;;;;6218583;23;20019;-80
2023/12/23 02:16:33;;;;;;;7.10;1.85;;;;;;;;;;6239142;23;20000;-80
2023/12/23 02:19:19;;;;;;;3.95;1.30;;;;;;;;;;6239905;23;20004;-80
2023/12/23 02:22:04;;;;;;;2.83;1.40;;;;;;;;;;6218842;23;20079;-80
2023/12/23 02:24:49;;;;;;;6.43;1.75;;;;;;;;;;6218973;23;20031;-79
2023/12/23 02:27:40;;;;;;;4.90;1.80;;;;;;;;;;6218484;23;20087;-79
2023/12/23 02:30:26;;;;;;;4.30;1.58;;;;;;;;;;6219207;23;20004;-80
2023/12/23 02:33:12;;;;;;;6.88;1.80;;;;;;;;;;6218533;23;20047;-79
2023/12/23 02:35:57;;;;;;;3.80;1.40;;;;;;;;;;6239834;23;19992;-79
2023/12/23 02:38:42;;;;;;;6.57;1.48;;;;;;;;;;6239683;23;19992;-79
2023/12/23 02:41:27;;;;;;;2.97;1.67;;;;;;;;;;6219104;23;19992;-79
2023/12/23 02:44:13;;;;;;;3.40;1.30;;;;;;;;;;6218493;23;20384;-81
2023/12/23 02:46:58;;;;;;;1.77;1.27;;;;;;;;;;6218772;23;20104;-81
2023/12/23 02:49:43;;;;;;;5.65;1.95;;;;;;;;;;6218960;23;20487;-81
2023/12/23 02:52:28;;;;;;;3.42;1.45;;;;;;;;;;6218559;23;20008;-84
2023/12/23 02:55:15;;;;;;;4.40;1.00;;;;;;;;;;6239614;23;20023;-81
2023/12/23 02:58:01;;;;;;;5.72;1.20;;;;;;;;;;6218536;23;20023;-81
2023/12/23 03:00:46;;;;;;;2.92;1.15;;;;;;;;;;6219148;23;19996;-81
2023/12/23 03:03:31;;;;;;;5.03;1.38;;;;;;;;;;6218894;23;20329;-81
2023/12/23 03:06:17;;;;;;;3.00;1.20;;;;;;;;;;6218403;23;20050;-82
2023/12/23 03:09:03;;;;;;;5.28;1.85;;;;;;;;;;6218646;23;20015;-80
2023/12/23 03:11:49;;;;;;;5.47;1.83;;;;;;;;;;6239089;23;20110;-81
2023/12/23 03:14:35;;;;;;;2.33;1.00;;;;;;;;;;6218545;23;20004;-80
2023/12/23 03:17:20;;;;;;;4.47;1.60;;;;;;;;;;6218087;23;20000;-80
2023/12/23 03:20:06;;;;;;;2.30;1.15;;;;;;;;;;6218236;23;20004;-81
2023/12/23 03:22:51;;;;;;;6.68;1.30;;;;;;;;;;6218135;23;20063;-80
2023/12/23 03:25:36;;;;;;;6.20;1.85;;;;;;;;;;6218176;23;20058;-80
2023/12/23 03:28:21;;;;;;;8.25;1.85;;;;;;;;;;6218605;23;19996;-80
2023/12/23 03:31:07;;;;;;;5.50;1.50;;;;;;;;;;6218587;23;20044;-80
2023/12/23 03:33:52;;;;;;;4.45;1.30;;;;;;;;;;6218228;23;20042;-80
2023/12/23 03:36:37;;;;;;;5.72;1.38;;;;;;;;;;6217657;23;20062;-80
2023/12/23 03:39:23;;;;;;;2.38;1.10;;;;;;;;;;6238950;23;20004;-80
2023/12/23 03:42:08;;;;;;;2.05;1.20;;;;;;;;;;6218112;23;20015;-80
2023/12/23 03:44:53;;;;;;;5.97;1.92;;;;;;;;;;6218200;23;20004;-80
2023/12/23 03:47:40;;;;;;;3.47;1.67;;;;;;;;;;6238956;23;20004;-79
2023/12/23 03:50:27;;;;;;;5.88;1.30;;;;;;;;;;6218610;23;20004;-79
2023/12/23 03:53:14;;;;;;;2.83;1.40;;;;;;;;;;6218481;23;20007;-79
2023/12/23 03:55:59;;;;;;;5.38;2.22;;;;;;;;;;6218162;23;20051;-80
2023/12/23 03:58:44;;;;;;;5.00;1.73;;;;;;;;;;6217778;23;19992;-82
2023/12/23 04:01:29;;;;;;;4.65;1.50;;;;;;;;;;6217978;23;19996;-81
2023/12/23 04:04:14;;;;;;;1.48;0.80;;;;;;;;;;6217658;23;20004;-81
2023/12/23 04:07:00;;;;;;;4.90;1.48;;;;;;;;;;6217604;23;19997;-82
2023/12/23 04:09:45;;;;;;;3.33;1.48;;;;;;;;;;6218181;22;20066;-81
2023/12/23 04:12:31;;;;;;;4.10;1.15;;;;;;;;;;6217765;23;20051;-80
2023/12/23 04:15:16;;;;;;;3.15;1.10;;;;;;;;;;6218507;23;20328;-80
2023/12/23 04:18:01;;;;;;;5.35;1.15;;;;;;;;;;6218187;23;20001;-80
2023/12/23 04:20:47;;;;;;;4.00;1.38;;;;;;;;;;6218072;23;20372;-80
2023/12/23 04:23:32;;;;;;;3.42;1.30;;;;;;;;;;6217961;23;20496;-80
2023/12/23 04:26:17;;;;;;;5.47;1.35;;;;;;;;;;6196893;23;20005;-80
2023/12/23 04:29:03;;;;;;;4.00;1.30;;;;;;;;;;6238824;23;20051;-80
2023/12/23 04:31:48;;;;;;;1.90;1.02;;;;;;;;;;6218059;23;20058;-80
2023/12/23 04:34:33;;;;;;;2.10;1.33;;;;;;;;;;6238424;23;20035;-80
2023/12/23 04:37:18;;;;;;;4.97;1.55;;;;;;;;;;6238971;23;20027;-80
2023/12/23 04:40:04;;;;;;;5.72;1.85;;;;;;;;;;6239312;23;20008;-80
2023/12/23 04:42:49;;;;;;;4.05;1.13;;;;;;;;;;6217612;23;20067;-80
2023/12/23 04:45:35;;;;;;;1.58;1.13;;;;;;;;;;6239022;23;20011;-80
2023/12/23 04:48:20;;;;;;;8.90;1.58;;;;;;;;;;6217727;23;20024;-80
2023/12/23 04:51:06;;;;;;;6.95;1.17;;;;;;;;;;6217780;23;20000;-80
2023/12/23 04:53:51;;;;;;;3.58;1.10;;;;;;;;;;6217631;23;20063;-80
2023/12/23 04:56:36;;;;;;;3.05;1.52;;;;;;;;;;6217638;23;20027;-80
2023/12/23 04:59:21;;;;;;;2.55;1.30;;;;;;;;;;6220493;23;20095;-80
2023/12/23 05:02:07;;;;;;;2.45;1.30;;;;;;;;;;6219601;23;19996;-79
2023/12/23 05:04:52;;;;;;;3.47;0.93;;;;;;;;;;6240649;23;20039;-79
2023/12/23 05:07:37;;;;;;;2.80;0.90;;;;;;;;;;6219233;23;20513;-80
2023/12/23 05:10:23;;;;;;;2.58;1.05;;;;;;;;;;6219600;23;20004;-79
2023/12/23 05:13:08;;;;;;;1.90;1.00;;;;;;;;;;6219401;23;20051;-81
2023/12/23 05:15:53;;;;;;;0.63;0.63;;;;;;;;;;6219635;23;20003;-80
2023/12/23 05:18:38;;;;;;;3.10;1.02;;;;;;;;;;6219422;23;20000;-82
2023/12/23 05:21:23;;;;;;;3.88;1.15;;;;;;;;;;6219580;23;20321;-82
2023/12/23 05:24:09;;;;;;;5.20;1.55;;;;;;;;;;6219622;23;19996;-80
2023/12/23 05:26:54;;;;;;;2.45;1.02;;;;;;;;;;6218991;23;20081;-81
2023/12/23 05:29:39;;;;;;;0.93;0.70;;;;;;;;;;6219593;23;20097;-78
2023/12/23 05:32:24;;;;;;;3.83;0.82;;;;;;;;;;6219465;23;20000;-82
2023/12/23 05:35:10;;;;;;;1.70;0.60;;;;;;;;;;6219249;23;20000;-79
2023/12/23 05:37:55;;;;;;;1.63;0.65;;;;;;;;;;6219110;23;20039;-80
2023/12/23 05:40:40;;;;;;;1.50;0.70;;;;;;;;;;6219569;23;19992;-81
2023/12/23 05:43:26;;;;;;;1.55;0.70;;;;;;;;;;6219361;23;20030;-81
2023/12/23 05:46:11;;;;;;;0.82;0.82;;;;;;;;;;6218805;23;19996;-81
2023/12/23 05:48:56;;;;;;;0.52;0.52;;;;;;;;;;6219198;23;20003;-81
2023/12/23 05:51:42;;;;;;;0.70;0.60;;;;;;;;;;6219321;23;20075;-81
2023/12/23 05:54:27;;;;;;;1.77;0.77;;;;;;;;;;6240039;23;20452;-80
2023/12/23 05:57:12;;;;;;;1.55;0.70;;;;;;;;;;6218288;23;20008;-80
2023/12/23 05:59:58;;;;;;;0.65;0.50;;;;;;;;;;6219522;23;20234;-80
2023/12/23 06:02:43;;;;;;;2.10;0.98;;;;;;;;;;6219534;23;20104;-80
2023/12/23 06:05:28;;;;;;;1.08;0.70;;;;;;;;;;6219133;23;20082;-80
2023/12/23 06:08:13;;;;;;;1.17;0.80;;;;;;;;;;6218392;23;20000;-80
2023/12/23 06:10:58;;;;;;;0.57;0.57;;;;;;;;;;6219313;23;20376;-80
2023/12/23 06:13:44;;;;;;;0.82;0.52;;;;;;;;;;6219027;23;20027;-80
2023/12/23 06:16:29;;;;;;;1.35;0.50;;;;;;;;;;6218959;23;20000;-79
2023/12/23 06:19:14;;;;;;;0.68;0.60;;;;;;;;;;6219100;23;20007;-79
2023/12/23 06:21:59;;;;;;;1.15;0.63;;;;;;;;;;6219011;23;20015;-80
2023/12/23 06:24:44;;;;;;;2.20;0.50;;;;;;;;;;6219427;23;20008;-79
2023/12/23 06:27:30;;;;;;;0.40;0.40;;;;;;;;;;6218699;23;19996;-81
2023/12/23 06:30:15;;;;;;;0.60;0.45;;;;;;;;;;6218660;23;19996;-82
2023/12/23 06:33:00;;;;;;;0.40;0.40;;;;;;;;;;6218834;23;19996;-82
2023/12/23 06:35:46;;;;;;;0.40;0.40;;;;;;;;;;6218412;23;20000;-82
2023/12/23 06:38:31;;;;;;;1.85;0.60;;;;;;;;;;6218713;23;20433;-81
2023/12/23 06:41:16;;;;;;;0.50;0.50;;;;;;;;;;6218623;23;20119;-80
2023/12/23 06:44:02;;;;;;;0.50;0.50;;;;;;;;;;6218892;23;20005;-81
2023/12/23 06:46:47;;;;;;;0.75;0.40;;;;;;;;;;6218996;23;20008;-81
2023/12/23 06:49:33;;;;;;;0.60;0.40;;;;;;;;;;6218509;23;20329;-81
2023/12/23 06:52:18;;;;;;;1.95;0.65;;;;;;;;;;6218602;23;20351;-80
2023/12/23 06:55:03;;;;;;;0.47;0.47;;;;;;;;;;6218791;23;20386;-81
2023/12/23 06:57:50;;;;;;;0.60;0.50;;;;;;;;;;6239586;23;20083;-81
2023/12/23 07:00:35;;;;;;;0.93;0.60;;;;;;;;;;6218939;23;20051;-81
2023/12/23 07:03:21;;;;;;;1.50;0.70;;;;;;;;;;6218234;23;20028;-80
2023/12/23 07:06:06;;;;;;;0.40;0.40;;;;;;;;;;6218251;23;20092;-80
2023/12/23 07:08:51;;;;;;;0.73;0.50;;;;;;;;;;6219107;23;20823;-80
2023/12/23 07:11:37;;;;;;;0.63;0.50;;;;;;;;;;6218185;23;19996;-80
2023/12/23 07:14:22;;;;;;;0.50;0.50;;;;;;;;;;6218254;23;20004;-80
2023/12/23 07:17:07;;;;;;;0.95;0.85;;;;;;;;;;6218032;23;20000;-80
2023/12/23 07:19:53;;;;;;;0.55;0.55;;;;;;;;;;6218394;23;20003;-79
2023/12/23 07:22:38;;;;;;;0.43;0.43;;;;;;;;;;6218504;23;20306;-80
2023/12/23 07:25:24;;;;;;;0.57;0.50;;;;;;;;;;6227639;23;20020;-77
2023/12/23 07:28:10;;;;;;;0.47;0.47;;;;;;;;;;6228436;23;20024;-79
2023/12/23 07:30:54;;;;;;;1.23;0.80;;;;;;;;;;6249695;23;20007;-79
2023/12/23 07:33:38;;;;;;;0.50;0.50;;;;;;;;;;6259560;23;20184;-79
2023/12/23 07:36:23;;;;;;;0.65;0.55;;;;;;;;;;6265890;23;19991;-81
2023/12/23 07:39:08;;;;;;;4.00;0.80;;;;;;;;;;6238528;23;20023;-80
2023/12/23 07:41:53;;;;;;;0.70;0.60;;;;;;;;;;6207988;23;20050;-82
2023/12/23 07:44:38;;;;;;;0.80;0.75;;;;;;;;;;6218919;23;20054;-82
2023/12/23 07:47:24;;;;;;;1.20;1.05;;;;;;;;;;6218546;23;20000;-81
2023/12/23 07:50:11;;;;;;;0.60;0.60;;;;;;;;;;6218366;23;20000;-83
2023/12/23 07:52:56;;;;;;;0.63;0.52;;;;;;;;;;6223391;23;20574;-82
2023/12/23 07:55:42;;;;;;;0.57;0.50;;;;;;;;;;6231178;23;20004;-81
2023/12/23 07:58:27;;;;;;;2.13;0.70;;;;;;;;;;6214395;23;19996;-82
2023/12/23 08:01:13;;;;;;;1.33;0.65;;;;;;;;;;6217710;23;20088;-81
2023/12/23 08:03:58;;;;;;;1.98;0.50;;;;;;;;;;6218040;23;20004;-81
2023/12/23 08:06:44;;;;;;;0.77;0.63;;;;;;;;;;6217662;23;20026;-81
2023/12/23 08:09:29;;;;;;;0.70;0.60;;;;;;;;;;6218099;22;20000;-81
2023/12/23 08:12:14;;;;;;;0.73;0.50;;;;;;;;;;6218085;23;20015;-81
2023/12/23 08:15:00;;;;;;;0.70;0.60;;;;;;;;;;6217418;23;20008;-81
2023/12/23 08:17:45;;;;;;;0.50;0.50;;;;;;;;;;6197116;23;19996;-81
2023/12/23 08:20:30;;;;;;;0.50;0.50;;;;;;;;;;6217825;23;19996;-81
2023/12/23 08:23:15;;;;;;;1.67;0.70;;;;;;;;;;6218234;23;20333;-81
2023/12/23 08:26:00;;;;;;;2.03;0.80;;;;;;;;;;6217792;23;20637;-80
2023/12/23 08:28:46;;;;;;;0.40;0.40;;;;;;;;;;6217595;23;20008;-80
2023/12/23 08:31:31;;;;;;;0.52;0.50;;;;;;;;;;6218480;23;19996;-81
2023/12/23 08:34:16;;;;;;;0.50;0.50;;;;;;;;;;6221124;23;20400;-80
2023/12/23 08:37:02;;;;;;;0.40;0.40;;;;;;;;;;6242840;23;20044;-81
2023/12/23 08:39:47;;;;;;;1.63;0.60;;;;;;;;;;6221172;23;20448;-80
2023/12/23 08:42:32;;;;;;;0.50;0.50;;;;;;;;;;6221231;23;20086;-81
2023/12/23 08:45:17;;;;;;;0.65;0.60;;;;;;;;;;6221323;23;20004;-80
2023/12/23 08:48:03;;;;;;;2.22;1.13;;;;;;;;;;6220972;23;20054;-80
2023/12/23 08:50:49;;;;;;;0.50;0.50;;;;;;;;;;6220746;23;20008;-80
2023/12/23 08:53:34;;;;;;;0.73;0.60;;;;;;;;;;6242464;23;20011;-80
2023/12/23 08:56:20;;;;;;;1.48;1.20;;;;;;;;;;6221050;23;20015;-83
2023/12/23 08:59:05;;;;;;;1.60;0.90;;;;;;;;;;6221585;23;19996;-81
2023/12/23 09:01:50;;;;;;;1.30;0.60;;;;;;;;;;6221078;23;20429;-82
2023/12/23 09:04:36;;;;;;;1.83;0.73;;;;;;;;;;6220595;23;20095;-81
2023/12/23 09:07:21;;;;;;;1.60;0.70;;;;;;;;;;6220921;23;20015;-81
2023/12/23 09:10:07;;;;;;;2.15;0.60;;;;;;;;;;6220740;22;20000;-82
2023/12/23 09:12:55;;;;;;;0.50;0.50;;;;;;;;;;6241952;23;20016;-81
2023/12/23 09:15:40;;;;;;;0.50;0.50;;;;;;;;;;6221047;23;20055;-81
2023/12/23 09:18:25;;;;;;;0.60;0.60;;;;;;;;;;6220906;23;20027;-82
2023/12/23 09:21:11;;;;;;;0.40;0.40;;;;;;;;;;6220881;23;19999;-82
2023/12/23 09:23:56;;;;;;;1.13;0.60;;;;;;;;;;6242011;23;20004;-81
2023/12/23 09:26:42;;;;;;;1.27;0.70;;;;;;;;;;6219951;23;19996;-81
2023/12/23 09:29:27;;;;;;;0.77;0.60;;;;;;;;;;6220266;23;20003;-80
2023/12/23 09:32:12;;;;;;;1.80;0.70;;;;;;;;;;6219816;23;20000;-81
2023/12/23 09:35:00;;;;;;;1.95;0.60;;;;;;;;;;6218549;23;20147;-81
2023/12/23 09:37:46;;;;;;;0.65;0.65;;;;;;;;;;6220684;23;20067;-81
2023/12/23 09:40:31;;;;;;;0.50;0.50;;;;;;;;;;6219973;23;20007;-81
2023/12/23 09:43:18;;;;;;;0.95;0.60;;;;;;;;;;6219176;23;20039;-81
2023/12/23 09:46:04;;;;;;;0.57;0.57;;;;;;;;;;6240237;23;20022;-80
2023/12/23 09:48:49;;;;;;;1.05;0.60;;;;;;;;;;6238870;23;20000;-80
2023/12/23 09:51:35;;;;;;;0.43;0.43;;;;;;;;;;6218702;23;20000;-80
2023/12/23 09:54:22;;;;;;;0.50;0.50;;;;;;;;;;6218385;23;20000;-82
2023/12/23 09:57:10;;;;;;;0.52;0.52;;;;;;;;;;6218977;23;20368;-79
2023/12/23 09:59:56;;;;;;;1.55;0.50;;;;;;;;;;6218779;23;19996;-79
2023/12/23 10:02:41;;;;;;;0.57;0.50;;;;;;;;;;6218536;23;20433;-79
2023/12/23 10:05:27;;;;;;;2.00;0.60;;;;;;;;;;6218927;23;19996;-79
2023/12/23 10:08:13;;;;;;;0.57;0.57;;;;;;;;;;6218986;23;20007;-80
2023/12/23 10:10:58;;;;;;;0.50;0.50;;;;;;;;;;6218531;23;20030;-82
2023/12/23 10:13:43;;;;;;;0.50;0.50;;;;;;;;;;6197745;23;20047;-82
2023/12/23 10:16:29;;;;;;;0.60;0.60;;;;;;;;;;6218958;23;20051;-82
2023/12/23 10:19:15;;;;;;;1.00;0.63;;;;;;;;;;6238431;23;20000;-82
2023/12/23 10:22:00;;;;;;;0.50;0.50;;;;;;;;;;6218830;23;20012;-82
2023/12/23 10:24:46;;;;;;;0.60;0.60;;;;;;;;;;6239831;23;20004;-81
2023/12/23 10:27:32;;;;;;;0.80;0.60;;;;;;;;;;6218782;23;20422;-80
2023/12/23 10:30:18;;;;;;;0.73;0.50;;;;;;;;;;6218420;23;20059;-81
2023/12/23 10:33:06;;;;;;;1.35;0.90;;;;;;;;;;6218888;23;20011;-80
2023/12/23 10:35:54;;;;;;;0.40;0.40;;;;;;;;;;6239968;23;20054;-81
2023/12/23 10:38:42;;;;;;;0.95;0.60;;;;;;;;;;6239808;23;20000;-80
2023/12/23 10:41:42;;;;;;;0.82;0.50;;;;;;;;;;6239363;23;20015;-80
2023/12/23 10:44:27;;;;;;;0.93;0.60;;;;;;;;;;6218782;23;19996;-80
2023/12/23 10:47:15;;;;;;;0.40;0.40;;;;;;;;;;6239773;23;19992;-81
2023/12/23 10:50:01;;;;;;;3.35;0.60;;;;;;;;;;6218564;23;20083;-80
2023/12/23 10:52:47;;;;;;;0.57;0.57;;;;;;;;;;6219024;23;20003;-80
2023/12/23 10:55:33;;;;;;;0.60;0.60;;;;;;;;;;6218254;23;20283;-80
2023/12/23 10:58:21;;;;;;;0.40;0.40;;;;;;;;;;6197908;23;20007;-80
2023/12/23 11:01:09;;;;;;;0.55;0.40;;;;;;;;;;6218675;23;20092;-80
2023/12/23 11:03:59;;;;;;;0.77;0.50;;;;;;;;;;6218854;23;20011;-81
2023/12/23 11:06:46;;;;;;;0.50;0.50;;;;;;;;;;6218315;23;19997;-80
2023/12/23 11:09:32;;;;;;;0.50;0.50;;;;;;;;;;6217911;22;20035;-80
2023/12/23 11:12:17;;;;;;;0.80;0.60;;;;;;;;;;6218069;23;20012;-80
2023/12/23 11:15:03;;;;;;;0.40;0.40;;;;;;;;;;6218118;23;20500;-80
2023/12/23 11:17:48;;;;;;;0.50;0.50;;;;;;;;;;6238558;23;20102;-80
2023/12/23 11:20:35;;;;;;;0.50;0.50;;;;;;;;;;6215420;23;19996;-79
2023/12/23 11:23:26;;;;;;;1.17;0.60;;;;;;;;;;6217790;23;20074;-80
2023/12/23 11:26:31;;;;;;;0.50;0.50;;;;;;;;;;6217641;23;19996;-79
2023/12/23 11:29:18;;;;;;;0.65;0.65;;;;;;;;;;6218317;23;20079;-81
2023/12/23 11:32:11;;;;;;;4.55;0.60;;;;;;;;;;6218225;23;20000;-81
2023/12/23 11:34:57;;;;;;;0.95;0.60;;;;;;;;;;6217549;23;20000;-81
2023/12/23 11:37:50;;;;;;;0.50;0.50;;;;;;;;;;6238593;23;20692;-81
2023/12/23 11:40:36;;;;;;;0.50;0.50;;;;;;;;;;6217499;23;20051;-82
2023/12/23 11:43:22;;;;;;;0.75;0.65;;;;;;;;;;6238811;23;19996;-81
2023/12/23 11:46:08;;;;;;;0.57;0.50;;;;;;;;;;6217451;23;20007;-81
2023/12/23 11:48:55;;;;;;;1.20;0.60;;;;;;;;;;6218203;23;19996;-81
2023/12/23 11:51:40;;;;;;;0.70;0.70;;;;;;;;;;6218243;23;20003;-82
2023/12/23 11:54:27;;;;;;;0.50;0.50;;;;;;;;;;6216903;23;20011;-82
2023/12/23 11:57:12;;;;;;;0.68;0.60;;;;;;;;;;6216662;23;20004;-81
2023/12/23 11:59:58;;;;;;;3.33;0.90;;;;;;;;;;6215863;23;20007;-81
2023/12/23 12:02:43;;;;;;;1.00;0.50;;;;;;;;;;6217007;23;20055;-80
2023/12/23 12:05:29;;;;;;;0.50;0.50;;;;;;;;;;6217907;23;20019;-80
2023/12/23 12:08:14;;;;;;;0.60;0.60;;;;;;;;;;6217535;23;20083;-81
2023/12/23 12:11:02;;;;;;;0.65;0.50;;;;;;;;;;6197056;23;20037;-81
2023/12/23 12:13:47;;;;;;;1.17;0.60;;;;;;;;;;6215181;23;20015;-81
2023/12/23 12:16:36;;;;;;;0.60;0.60;;;;;;;;;;6217223;23;20070;-81
2023/12/23 12:19:21;;;;;;;0.98;0.57;;;;;;;;;;6217609;23;20004;-81
2023/12/23 12:22:07;;;;;;;0.43;0.43;;;;;;;;;;6215571;23;19997;-81
2023/12/23 12:24:53;;;;;;;0.55;0.55;;;;;;;;;;6217203;23;20058;-81
2023/12/23 12:27:38;;;;;;;0.63;0.63;;;;;;;;;;6237888;23;20000;-81
2023/12/23 12:30:23;;;;;;;0.60;0.60;;;;;;;;;;6238130;23;20003;-80
2023/12/23 12:33:09;;;;;;;1.42;0.60;;;;;;;;;;6239055;23;20079;-80
2023/12/23 12:35:54;;;;;;;0.50;0.50;;;;;;;;;;6217371;23;20083;-80
2023/12/23 12:38:41;;;;;;;0.95;0.52;;;;;;;;;;6217231;23;20015;-82
2023/12/23 12:41:26;;;;;;;0.50;0.50;;;;;;;;;;6217345;23;20031;-82
2023/12/23 12:44:12;;;;;;;0.85;0.68;;;;;;;;;;6216986;23;20081;-83
2023/12/23 12:46:57;;;;;;;0.60;0.60;;;;;;;;;;6217265;23;19992;-83
2023/12/23 12:49:46;;;;;;;0.77;0.50;;;;;;;;;;6217269;23;20169;-81
2023/12/23 12:52:32;;;;;;;2.83;0.80;;;;;;;;;;6217064;23;20042;-82
2023/12/23 12:55:22;;;;;;;0.95;0.60;;;;;;;;;;6216757;23;19992;-84
2023/12/23 12:58:07;;;;;;;0.50;0.50;;;;;;;;;;6238472;23;20027;-83
2023/12/23 13:00:52;;;;;;;0.90;0.70;;;;;;;;;;6238514;23;20043;-81
2023/12/23 13:03:38;;;;;;;0.90;0.90;;;;;;;;;;6216995;23;20079;-82
2023/12/23 13:06:23;;;;;;;0.40;0.40;;;;;;;;;;6217561;23;20000;-81
2023/12/23 13:09:09;;;;;;;0.50;0.50;;;;;;;;;;6217140;23;20007;-81
2023/12/23 13:11:57;;;;;;;1.23;0.40;;;;;;;;;;6217295;23;20008;-81
2023/12/23 13:14:42;;;;;;;0.60;0.60;;;;;;;;;;6243053;23;20039;-82
2023/12/23 13:17:28;;;;;;;0.75;0.50;;;;;;;;;;6217742;23;19997;-82
2023/12/23 13:20:14;;;;;;;0.77;0.50;;;;;;;;;;6221216;23;20007;-81
2023/12/23 13:22:59;;;;;;;0.50;0.50;;;;;;;;;;6219069;23;20022;-81
2023/12/23 13:25:45;;;;;;;0.50;0.50;;;;;;;;;;6219341;23;20003;-81
2023/12/23 13:28:32;;;;;;;0.63;0.47;;;;;;;;;;6219431;23;20372;-81
2023/12/23 13:31:17;;;;;;;0.50;0.50;;;;;;;;;;6219404;23;19992;-81
2023/12/23 13:34:03;;;;;;;0.52;0.40;;;;;;;;;;6219186;23;20004;-81
2023/12/23 13:36:48;;;;;;;0.50;0.50;;;;;;;;;;6218711;23;20000;-81
2023/12/23 13:39:34;;;;;;;0.40;0.40;;;;;;;;;;6240297;23;20110;-81
2023/12/23 13:42:19;;;;;;;0.50;0.50;;;;;;;;;;6219309;23;20416;-81
2023/12/23 13:45:05;;;;;;;0.40;0.40;;;;;;;;;;6218862;23;20394;-81
2023/12/23 13:47:50;;;;;;;0.73;0.50;;;;;;;;;;6219325;23;19996;-81
2023/12/23 13:50:35;;;;;;;1.13;0.70;;;;;;;;;;6219298;23;20023;-78
2023/12/23 13:53:20;;;;;;;1.35;0.50;;;;;;;;;;6240295;23;20040;-83
2023/12/23 13:56:08;;;;;;;0.93;0.50;;;;;;;;;;6218968;23;20010;-83
2023/12/23 13:58:56;;;;;;;0.60;0.60;;;;;;;;;;6218989;23;20035;-83
2023/12/23 14:01:41;;;;;;;0.85;0.68;;;;;;;;;;6197568;23;20004;-82
2023/12/23 14:04:27;;;;;;;1.10;0.65;;;;;;;;;;6219226;23;20039;-82
2023/12/23 14:07:12;;;;;;;0.50;0.50;;;;;;;;;;6240259;23;20007;-82
2023/12/23 14:10:01;;;;;;;0.45;0.45;;;;;;;;;;6219322;22;20330;-81
2023/12/23 14:12:46;;;;;;;0.85;0.68;;;;;;;;;;6199062;23;20026;-81
2023/12/23 14:15:31;;;;;;;1.08;0.60;;;;;;;;;;6220383;23;19992;-81
2023/12/23 14:18:17;;;;;;;0.75;0.50;;;;;;;;;;6219162;23;20513;-81
2023/12/23 14:21:02;;;;;;;2.38;0.50;;;;;;;;;;6219015;23;19996;-81
2023/12/23 14:23:47;;;;;;;0.60;0.60;;;;;;;;;;6218400;23;20472;-81
2023/12/23 14:26:33;;;;;;;0.60;0.60;;;;;;;;;;6218758;23;20000;-81
2023/12/23 14:29:18;;;;;;;0.40;0.40;;;;;;;;;;6218387;23;20155;-81
2023/12/23 14:32:03;;;;;;;0.60;0.50;;;;;;;;;;6219132;23;19996;-81
2023/12/23 14:34:48;;;;;;;0.60;0.60;;;;;;;;;;6219602;23;20496;-82
2023/12/23 14:37:34;;;;;;;0.47;0.47;;;;;;;;;;6218539;23;20456;-81
2023/12/23 14:40:19;;;;;;;1.10;0.70;;;;;;;;;;6198053;23;20011;-81
2023/12/23 14:43:04;;;;;;;0.70;0.70;;;;;;;;;;6218260;23;20000;-81
2023/12/23 14:45:49;;;;;;;0.50;0.50;;;;;;;;;;6239637;23;20000;-81
2023/12/23 14:48:35;;;;;;;0.68;0.60;;;;;;;;;;6218531;23;19992;-80
2023/12/23 14:51:23;;;;;;;0.50;0.50;;;;;;;;;;6218755;23;20007;-80
2023/12/23 14:54:08;;;;;;;0.40;0.40;;;;;;;;;;6218272;23;20004;-80
2023/12/23 14:56:53;;;;;;;0.50;0.50;;;;;;;;;;6218761;23;20031;-80
2023/12/23 14:59:38;;;;;;;0.98;0.70;;;;;;;;;;6218919;23;20099;-80
2023/12/23 15:02:24;;;;;;;0.52;0.50;;;;;;;;;;6218314;23;20079;-79
2023/12/23 15:05:10;;;;;;;0.75;0.57;;;;;;;;;;6218958;23;20047;-80
2023/12/23 15:07:55;;;;;;;0.55;0.47;;;;;;;;;;6218533;23;20330;-82
2023/12/23 15:10:40;;;;;;;2.10;0.95;;;;;;;;;;6218301;23;20000;-82
2023/12/23 15:13:26;;;;;;;3.50;0.65;;;;;;;;;;6217799;23;20031;-82
2023/12/23 15:16:11;;;;;;;1.75;0.50;;;;;;;;;;6218589;23;20000;-81
2023/12/23 15:18:56;;;;;;;1.25;0.68;;;;;;;;;;6219051;23;20004;-83
2023/12/23 15:21:41;;;;;;;0.45;0.45;;;;;;;;;;6218345;23;20006;-83
2023/12/23 15:24:27;;;;;;;0.68;0.63;;;;;;;;;;6218212;23;20083;-82
2023/12/23 15:27:12;;;;;;;1.65;0.70;;;;;;;;;;6217991;23;20083;-83
2023/12/23 15:29:58;;;;;;;0.60;0.60;;;;;;;;;;6218560;23;20004;-82
2023/12/23 15:32:43;;;;;;;0.50;0.50;;;;;;;;;;6217816;23;20000;-82
2023/12/23 15:35:28;;;;;;;0.45;0.45;;;;;;;;;;6218545;23;20028;-81
2023/12/23 15:38:13;;;;;;;0.43;0.43;;;;;;;;;;6235787;23;20003;-82
2023/12/23 15:40:57;;;;;;;0.60;0.60;;;;;;;;;;6249182;23;20011;-82
2023/12/23 15:43:45;;;;;;;0.50;0.50;;;;;;;;;;6165859;23;20066;-81
2023/12/23 15:46:29;;;;;;;0.63;0.57;;;;;;;;;;6175662;23;20495;-80
2023/12/23 15:49:15;;;;;;;3.00;1.02;;;;;;;;;;6176662;23;20020;-82
2023/12/23 15:52:00;;;;;;;0.70;0.50;;;;;;;;;;6169111;23;20008;-82
2023/12/23 15:54:48;;;;;;;1.30;0.50;;;;;;;;;;6219845;23;19996;-82
2023/12/23 15:57:34;;;;;;;1.63;0.80;;;;;;;;;;6239724;23;20007;-81
2023/12/23 16:00:19;;;;;;;0.40;0.40;;;;;;;;;;6218646;23;20456;-81
2023/12/23 16:03:04;;;;;;;1.52;0.68;;;;;;;;;;6196992;23;20062;-81
2023/12/23 16:05:50;;;;;;;0.50;0.50;;;;;;;;;;6219274;23;20015;-81
2023/12/23 16:08:35;;;;;;;0.50;0.50;;;;;;;;;;6218303;23;20408;-81
2023/12/23 16:11:20;;;;;;;0.82;0.70;;;;;;;;;;6218066;23;20004;-81
2023/12/23 16:14:06;;;;;;;0.50;0.50;;;;;;;;;;6218194;23;20040;-81
2023/12/23 16:16:51;;;;;;;1.10;0.68;;;;;;;;;;6218131;23;20002;-81
2023/12/23 16:19:36;;;;;;;1.92;0.75;;;;;;;;;;6218988;23;20004;-81
2023/12/23 16:22:22;;;;;;;0.93;0.60;;;;;;;;;;6220461;23;20009;-82
2023/12/23 16:25:10;;;;;;;0.77;0.60;;;;;;;;;;6218314;23;20027;-83
2023/12/23 16:27:55;;;;;;;2.28;1.20;;;;;;;;;;6218356;23;20003;-82
2023/12/23 16:30:40;;;;;;;2.15;1.13;;;;;;;;;;6218218;23;19999;-81
2023/12/23 16:33:26;;;;;;;7.90;1.70;;;;;;;;;;6219096;23;20008;-83